Happy Camp, California
Current Conditions -  °F | °C
As of 1:01 PM on Saturday 25 Oct 2014 (Local Time) from KCEC Reporting Station
Light Rain Light Rain  
Wind Chill: 58°   Ceiling: 6000
Heat Index: 58°   Visibility: 4mi
Dew Point: 57°   Wind: 16mph
Humidity: 97%   Direction: 230°SW
Pressure: 29.77"   Gusts: NA
Location:  41.79°N, 123.38°W
Report Text: KCEC 252001Z AUTO 23014KT 4SM -RA BR SCT015 BKN060 OVC085 14/14 A2977 RMK AO2 PRESRR P0000 T01440139
Loading
Personal Weather Stations






























Interactive Weather Map
Tropical Storm Tracking
New forecast layout! Learn more

10-Day Weather Forecast

Advertisements
Track Severe Weather on mobile